This is the latest recevied weather packets stored in our database for station/object K3BAY-1. If no packets are shown the sender has not sent any weather packets the latest 10 day(s).
| Time | Temp. | Humidity | Pressure | Rain* | Wind** | Luminosity | Snow |
|---|---|---|---|---|---|---|---|
| 1777897914 | 14.44° C | 56% | 1014.6 hPa | 0 mm | - | 40 W/m² | - |
| 1777897609 | 13.89° C | 57% | 1014.6 hPa | 0 mm | - | 42 W/m² | - |
| 1777897305 | 13.89° C | 57% | 1014.6 hPa | 0 mm | - | 48 W/m² | - |
| 1777897002 | 13.89° C | 58% | 1014.6 hPa | 0 mm | - | 53 W/m² | - |
| 1777896699 | 13.33° C | 59% | 1014.9 hPa | 0 mm | - | 46 W/m² | - |
| 1777896396 | 13.33° C | 59% | 1014.2 hPa | 0 mm | - | 42 W/m² | - |
| 1777896093 | 13.33° C | 59% | 1014.2 hPa | 0 mm | - | 40 W/m² | - |
| 1777895791 | 12.78° C | 60% | 1014.6 hPa | 0 mm | - | 40 W/m² | - |
| 1777894580 | 12.22° C | 63% | 1014.9 hPa | 0 mm | - | 46 W/m² | - |
| 1777894278 | 11.67° C | 64% | 1014.9 hPa | 0 mm | - | 42 W/m² | - |
| 1777893974 | 11.67° C | 65% | 1014.9 hPa | 0 mm | - | 35 W/m² | - |
| 1777893671 | 11.67° C | 67% | 1014.9 hPa | 0 mm | - | 30 W/m² | - |
| 1777893367 | 11.11° C | 68% | 1014.9 hPa | 0 mm | - | 26 W/m² | - |
| 1777893063 | 11.11° C | 67% | 1014.9 hPa | 0 mm | - | 24 W/m² | - |
| 1777892761 | 11.11° C | 67% | 1014.6 hPa | 0 mm | - | 21 W/m² | - |
| 1777892456 | 11.11° C | 67% | 1014.2 hPa | 0 mm | - | 19 W/m² | - |
| 1777892152 | 11.11° C | 67% | 1014.2 hPa | 0 mm | - | 17 W/m² | - |
| 1777891547 | 11.67° C | 66% | 1014.2 hPa | 0 mm | - | 14 W/m² | - |
| 1777890334 | 11.11° C | 67% | 1014.6 hPa | 0 mm | - | 10 W/m² | - |
| 1777890030 | 11.11° C | 67% | 1014.6 hPa | 0 mm | - | 5 W/m² | - |
| 1777889728 | 11.11° C | 68% | 1014.6 hPa | 0 mm | - | 4 W/m² | - |
| 1777889426 | 10.56° C | 70% | 1014.6 hPa | 0 mm | - | 2 W/m² | - |
| 1777889123 | 11.11° C | 69% | 1014.2 hPa | 0 mm | - | 0 W/m² | - |
| 1777888821 | 10.56° C | 71% | 1014.6 hPa | 0 mm | - | 0 W/m² | - |
| 1777888516 | 10.56° C | 71% | 1014.2 hPa | 0 mm | - | 0 W/m² | - |
* Rain latest hour (hover to see other rain measurements)
** Current wind speed in m/s (hover to see current wind gust speed)